Time;durP1;ratioP1;P1;durP2;ratioP2;P2;SDS_P1;SDS_P2;PMS_P1;PMS_P2;Temp;Humidity;BMP_temperature;BMP_pressure;BME280_temperature;BME280_humidity;BME280_pressure;Samples;Min_cycle;Max_cycle;Signal;HPM_P1;HPM_P2
2021/08/07 00:01:01;;;;;;;2.80;2.00;;;17.10;81.20;;;;;;5054313;28;20202;-47
2021/08/07 00:03:26;;;;;;;3.20;1.85;;;17.10;81.80;;;;;;5055295;28;20024;-49
2021/08/07 00:05:52;;;;;;;5.28;1.70;;;17.20;81.40;;;;;;5058097;28;20366;-48
2021/08/07 00:08:18;;;;;;;3.58;1.60;;;17.20;81.40;;;;;;5054663;28;20048;-52
2021/08/07 00:10:44;;;;;;;2.13;1.20;;;17.20;81.80;;;;;;5053888;28;20107;-48
2021/08/07 00:13:10;;;;;;;2.90;1.52;;;17.20;81.60;;;;;;5053944;28;20041;-51
2021/08/07 00:15:36;;;;;;;2.90;1.40;;;17.10;82.20;;;;;;5054025;28;20040;-52
2021/08/07 00:18:02;;;;;;;3.50;1.73;;;17.10;82.90;;;;;;5053584;28;20033;-51
2021/08/07 00:20:28;;;;;;;2.60;2.00;;;17.00;84.10;;;;;;5053595;28;20507;-49
2021/08/07 00:22:54;;;;;;;5.07;2.47;;;16.90;84.90;;;;;;5053678;28;20112;-48
2021/08/07 00:25:19;;;;;;;5.90;2.55;;;16.70;86.00;;;;;;5053519;28;20047;-48
2021/08/07 00:27:45;;;;;;;10.90;3.30;;;16.60;86.60;;;;;;5053560;28;20053;-52
2021/08/07 00:30:11;;;;;;;7.65;2.55;;;16.60;86.90;;;;;;5053514;28;20544;-52
2021/08/07 00:32:38;;;;;;;2.80;2.50;;;16.60;87.30;;;;;;5053104;28;20102;-50
2021/08/07 00:35:05;;;;;;;5.38;2.80;;;16.50;87.80;;;;;;5053357;28;20044;-49
2021/08/07 00:37:31;;;;;;;5.60;2.72;;;16.50;87.80;;;;;;5053144;28;20128;-52
2021/08/07 00:39:57;;;;;;;5.38;2.85;;;16.50;88.00;;;;;;5053959;28;20060;-48
2021/08/07 00:42:22;;;;;;;3.03;2.72;;;16.40;88.00;;;;;;5053081;28;20434;-51
2021/08/07 00:44:48;;;;;;;6.80;3.53;;;16.40;88.50;;;;;;5053199;28;20024;-49
2021/08/07 00:47:14;;;;;;;6.03;3.10;;;16.50;88.60;;;;;;5051741;28;20081;-52
2021/08/07 00:49:41;;;;;;;8.20;3.65;;;16.50;88.30;;;;;;5053278;28;20029;-48
2021/08/07 00:52:07;;;;;;;6.35;3.38;;;16.50;87.70;;;;;;5053004;28;20079;-51
2021/08/07 00:54:33;;;;;;;6.45;3.42;;;16.50;88.00;;;;;;5052885;28;20040;-51
2021/08/07 00:56:59;;;;;;;5.82;4.40;;;16.60;88.30;;;;;;5053625;28;20021;-48
2021/08/07 00:59:24;;;;;;;5.07;3.80;;;16.60;88.00;;;;;;5052758;28;20340;-51
2021/08/07 01:01:57;;;;;;;9.55;3.70;;;16.60;88.30;;;;;;5053078;28;20111;-49
2021/08/07 01:04:28;;;;;;;8.32;3.60;;;16.60;88.10;;;;;;5051709;28;20079;-48
2021/08/07 01:07:07;;;;;;;3.70;3.10;;;16.70;87.90;;;;;;5053734;28;20144;-49
2021/08/07 01:09:57;;;;;;;5.53;3.30;;;16.70;88.10;;;;;;5053906;28;20425;-50
2021/08/07 01:12:32;;;;;;;6.63;3.47;;;16.60;88.10;;;;;;5049403;28;20443;-50
2021/08/07 01:15:01;;;;;;;5.95;3.60;;;16.50;89.00;;;;;;5053860;28;20028;-50
2021/08/07 01:17:29;;;;;;;5.13;3.60;;;16.50;89.30;;;;;;5053715;28;20021;-48
2021/08/07 01:20:01;;;;;;;5.00;3.67;;;16.50;89.20;;;;;;5051678;28;20028;-51
2021/08/07 01:22:34;;;;;;;7.90;3.47;;;16.60;89.30;;;;;;5052959;28;20029;-51
2021/08/07 01:25:04;;;;;;;5.78;3.17;;;16.60;88.90;;;;;;5053313;28;20056;-50
2021/08/07 01:27:35;;;;;;;5.65;3.25;;;16.50;89.30;;;;;;5053159;28;20116;-52
2021/08/07 01:30:01;;;;;;;8.05;4.07;;;16.60;88.90;;;;;;5053109;28;20078;-52
2021/08/07 01:32:48;;;;;;;8.82;3.92;;;16.70;88.60;;;;;;5052578;28;20045;-52
2021/08/07 01:35:14;;;;;;;4.53;3.67;;;16.60;88.80;;;;;;5052830;28;20025;-49
2021/08/07 01:37:41;;;;;;;5.55;4.07;;;16.50;89.10;;;;;;5052878;28;20040;-50
2021/08/07 01:40:07;;;;;;;21.75;5.47;;;16.50;89.60;;;;;;5053031;28;20029;-49
2021/08/07 01:42:33;;;;;;;6.22;3.53;;;16.40;90.20;;;;;;5052961;28;20108;-51
2021/08/07 01:44:59;;;;;;;9.90;4.32;;;16.50;89.70;;;;;;5052826;28;20060;-48
2021/08/07 01:47:56;;;;;;;4.65;3.70;;;16.60;89.70;;;;;;5051601;28;20051;-51
2021/08/07 01:50:24;;;;;;;4.97;3.55;;;16.60;89.10;;;;;;5053145;28;20361;-48
2021/08/07 01:52:54;;;;;;;6.57;3.60;;;16.50;89.20;;;;;;5052871;28;20079;-48
2021/08/07 01:55:45;;;;;;;7.22;3.70;;;16.40;89.90;;;;;;5035143;28;20467;-48
2021/08/07 01:58:17;;;;;;;3.10;2.55;;;16.50;89.30;;;;;;5052603;28;20127;-48
2021/08/07 02:00:45;;;;;;;4.03;3.00;;;16.50;89.20;;;;;;5052616;28;20025;-48
2021/08/07 02:03:13;;;;;;;6.70;3.05;;;16.60;88.40;;;;;;5052548;28;20021;-48
2021/08/07 02:05:41;;;;;;;7.20;3.38;;;16.70;88.50;;;;;;5052618;28;20027;-51
2021/08/07 02:08:09;;;;;;;3.95;3.35;;;16.70;88.30;;;;;;5052688;28;20029;-49
2021/08/07 02:10:35;;;;;;;4.93;3.28;;;16.60;88.40;;;;;;5053879;28;20407;-49
2021/08/07 02:13:01;;;;;;;5.70;3.00;;;16.60;88.60;;;;;;5052735;28;20369;-47
2021/08/07 02:15:29;;;;;;;9.45;3.80;;;16.70;88.20;;;;;;5052709;28;20017;-52
2021/08/07 02:17:56;;;;;;;7.93;3.22;;;16.70;88.20;;;;;;5052224;28;20055;-48
2021/08/07 02:20:21;;;;;;;8.60;3.00;;;16.70;88.60;;;;;;5051043;28;20029;-47
2021/08/07 02:22:50;;;;;;;9.10;3.50;;;16.70;88.60;;;;;;5052470;28;20084;-49
2021/08/07 02:25:16;;;;;;;11.95;3.55;;;16.60;88.80;;;;;;5052602;28;20064;-49
2021/08/07 02:27:42;;;;;;;5.95;2.88;;;16.60;88.70;;;;;;5052556;28;20021;-49
2021/08/07 02:30:09;;;;;;;4.72;3.38;;;16.60;89.00;;;;;;5051630;28;20219;-49
2021/08/07 02:32:37;;;;;;;7.75;3.80;;;16.50;89.20;;;;;;5053366;28;20489;-48
2021/08/07 02:35:09;;;;;;;7.45;3.28;;;16.50;89.50;;;;;;5056146;28;20514;-49
2021/08/07 02:37:36;;;;;;;3.65;3.13;;;16.50;89.30;;;;;;5056624;28;20485;-50
2021/08/07 02:40:03;;;;;;;5.32;3.25;;;16.40;89.40;;;;;;5055976;28;20358;-37
2021/08/07 02:42:30;;;;;;;4.65;3.35;;;16.40;89.20;;;;;;5055823;28;20025;-37
2021/08/07 02:44:57;;;;;;;4.63;3.20;;;16.30;89.80;;;;;;5055804;28;20032;-38
2021/08/07 02:47:24;;;;;;;7.57;3.83;;;16.30;90.00;;;;;;5055810;28;20021;-37
2021/08/07 02:49:51;;;;;;;6.60;3.47;;;16.30;89.90;;;;;;5055381;28;20033;-36
2021/08/07 02:52:17;;;;;;;3.25;2.67;;;16.20;89.80;;;;;;5055621;28;20033;-50
2021/08/07 02:54:44;;;;;;;6.57;2.90;;;16.10;90.30;;;;;;5056120;28;20029;-48
2021/08/07 02:57:10;;;;;;;5.93;2.75;;;16.00;90.90;;;;;;5055666;28;20059;-52
2021/08/07 02:59:36;;;;;;;8.07;3.17;;;16.00;90.80;;;;;;5056206;28;20029;-48
2021/08/07 03:02:02;;;;;;;5.95;3.40;;;16.00;90.60;;;;;;5055630;28;20067;-52
2021/08/07 03:04:27;;;;;;;6.53;3.50;;;16.00;90.50;;;;;;5055686;28;20040;-47
2021/08/07 03:06:53;;;;;;;9.45;3.20;;;16.10;90.50;;;;;;5055579;28;20145;-49
2021/08/07 03:09:19;;;;;;;5.57;3.47;;;16.00;90.00;;;;;;5055648;28;20535;-47
2021/08/07 03:11:45;;;;;;;7.68;2.47;;;16.10;90.10;;;;;;5055289;28;20025;-48
2021/08/07 03:14:11;;;;;;;5.05;3.17;;;16.10;89.50;;;;;;5055240;28;20032;-50
2021/08/07 03:16:36;;;;;;;6.05;3.38;;;16.20;88.60;;;;;;5055212;28;20025;-50
2021/08/07 03:19:02;;;;;;;5.43;2.80;;;16.20;88.70;;;;;;5055308;28;20492;-48
2021/08/07 03:21:29;;;;;;;6.13;2.90;;;16.20;88.60;;;;;;5055146;28;20465;-49
2021/08/07 03:23:54;;;;;;;3.22;2.67;;;16.30;88.20;;;;;;5055210;28;20040;-51
2021/08/07 03:26:20;;;;;;;4.35;2.30;;;16.10;88.60;;;;;;5054962;28;20021;-48
2021/08/07 03:28:46;;;;;;;4.65;2.72;;;16.10;88.50;;;;;;5055260;28;20021;-50
2021/08/07 03:31:12;;;;;;;3.58;2.65;;;16.10;88.40;;;;;;5054847;28;20028;-51
2021/08/07 03:33:37;;;;;;;5.15;2.63;;;16.10;88.20;;;;;;5054690;28;20060;-52
2021/08/07 03:36:03;;;;;;;5.38;2.53;;;16.00;88.80;;;;;;5055173;28;20078;-47
2021/08/07 03:38:29;;;;;;;4.32;2.13;;;16.00;89.10;;;;;;5055130;28;20032;-50
2021/08/07 03:40:55;;;;;;;5.80;2.10;;;16.00;89.00;;;;;;5054912;28;20062;-47
2021/08/07 03:43:21;;;;;;;3.13;2.38;;;16.10;88.70;;;;;;5054455;28;20022;-47
2021/08/07 03:45:46;;;;;;;1.90;1.80;;;16.00;88.60;;;;;;5054663;28;20376;-47
2021/08/07 03:48:12;;;;;;;7.38;2.30;;;15.90;89.10;;;;;;5054733;28;20025;-52
2021/08/07 03:50:38;;;;;;;7.95;2.42;;;15.80;89.20;;;;;;5055510;28;20511;-48
2021/08/07 03:53:03;;;;;;;7.25;1.98;;;15.90;89.80;;;;;;5054911;28;20029;-48
2021/08/07 03:55:29;;;;;;;4.45;2.40;;;15.90;89.20;;;;;;5054620;28;20025;-48
2021/08/07 03:57:59;;;;;;;6.57;2.95;;;15.80;89.10;;;;;;5054667;28;20472;-48
2021/08/07 04:00:27;;;;;;;2.80;1.95;;;16.00;89.30;;;;;;5054822;28;20037;-47
2021/08/07 04:02:53;;;;;;;4.30;2.25;;;16.00;88.60;;;;;;5054467;28;20029;-35
2021/08/07 04:05:19;;;;;;;5.30;1.90;;;16.00;88.50;;;;;;5053152;28;20455;-35
2021/08/07 04:07:48;;;;;;;5.90;2.30;;;16.00;88.40;;;;;;5053093;28;20104;-46
2021/08/07 04:10:16;;;;;;;2.90;2.10;;;16.10;88.40;;;;;;5054353;28;20025;-49
2021/08/07 04:12:42;;;;;;;4.97;2.47;;;16.20;87.30;;;;;;5054472;28;20060;-51
2021/08/07 04:15:09;;;;;;;4.97;2.17;;;16.10;87.70;;;;;;5054428;28;20029;-47
2021/08/07 04:17:39;;;;;;;6.75;3.20;;;16.20;87.10;;;;;;5054349;28;20033;-50
2021/08/07 04:20:07;;;;;;;4.78;2.35;;;16.20;87.10;;;;;;5054194;28;20554;-52
2021/08/07 04:22:33;;;;;;;8.18;2.70;;;16.20;87.10;;;;;;5053946;28;20032;-52
2021/08/07 04:24:58;;;;;;;4.57;2.22;;;16.30;86.50;;;;;;5054284;28;20025;-47
2021/08/07 04:27:24;;;;;;;7.55;2.17;;;16.30;86.60;;;;;;5052854;28;20381;-48
2021/08/07 04:29:50;;;;;;;2.60;1.65;;;16.10;87.20;;;;;;5053987;28;20377;-51
2021/08/07 04:32:16;;;;;;;2.20;1.98;;;16.00;87.80;;;;;;5053581;28;20516;-48
2021/08/07 04:34:42;;;;;;;5.20;2.15;;;16.00;88.30;;;;;;5053842;28;20028;-50
2021/08/07 04:37:08;;;;;;;4.18;1.63;;;16.10;88.20;;;;;;5053881;28;20037;-36
2021/08/07 04:39:34;;;;;;;5.47;1.92;;;16.00;87.70;;;;;;5054224;28;20036;-36
2021/08/07 04:42:00;;;;;;;5.03;2.33;;;16.00;87.60;;;;;;5053615;28;20021;-36
2021/08/07 04:44:25;;;;;;;5.22;2.35;;;16.10;87.50;;;;;;5053699;28;20017;-48
2021/08/07 04:46:51;;;;;;;6.28;2.40;;;16.20;86.60;;;;;;5053582;28;20025;-48
2021/08/07 04:49:16;;;;;;;2.75;2.10;;;16.10;86.60;;;;;;5053505;28;20017;-50
2021/08/07 04:51:42;;;;;;;2.53;2.10;;;16.10;86.40;;;;;;5053743;28;20025;-52
2021/08/07 04:54:10;;;;;;;2.60;2.15;;;16.20;86.50;;;;;;5053339;28;20025;-50
2021/08/07 04:56:37;;;;;;;2.42;2.00;;;16.20;86.80;;;;;;5052761;28;20379;-52
2021/08/07 04:59:03;;;;;;;3.00;2.10;;;16.10;87.30;;;;;;5053489;28;20067;-52
2021/08/07 05:01:29;;;;;;;1.58;1.48;;;16.30;86.50;;;;;;5053522;28;20091;-52
2021/08/07 05:03:54;;;;;;;6.05;2.15;;;16.30;86.00;;;;;;5053588;28;20028;-50
2021/08/07 05:06:20;;;;;;;4.25;1.95;;;16.70;84.70;;;;;;5053627;28;20457;-47
2021/08/07 05:08:46;;;;;;;4.00;2.47;;;16.80;83.40;;;;;;5053565;28;20071;-36
2021/08/07 05:11:11;;;;;;;3.47;1.90;;;16.80;83.60;;;;;;5053283;28;20025;-36
2021/08/07 05:13:37;;;;;;;7.13;2.30;;;16.80;84.20;;;;;;5053123;28;20469;-37
2021/08/07 05:16:03;;;;;;;3.42;1.50;;;16.80;84.60;;;;;;5053063;28;20048;-36
2021/08/07 05:18:29;;;;;;;7.00;2.25;;;16.80;84.50;;;;;;5052956;28;20032;-36
2021/08/07 05:20:55;;;;;;;5.57;2.00;;;16.90;83.30;;;;;;5052773;28;20025;-40
2021/08/07 05:23:21;;;;;;;5.25;2.50;;;16.80;84.00;;;;;;5053095;28;20162;-36
2021/08/07 05:25:47;;;;;;;3.60;2.28;;;16.90;83.90;;;;;;5053211;28;20524;-36
2021/08/07 05:28:12;;;;;;;5.40;2.40;;;16.70;84.80;;;;;;5053207;28;20025;-36
2021/08/07 05:30:38;;;;;;;2.75;2.25;;;16.70;85.70;;;;;;5053419;28;20146;-51
2021/08/07 05:33:04;;;;;;;4.45;2.60;;;16.80;84.30;;;;;;5053224;28;20061;-52
2021/08/07 05:35:29;;;;;;;2.92;2.60;;;16.70;85.00;;;;;;5053610;28;20118;-36
2021/08/07 05:37:55;;;;;;;3.28;2.20;;;16.70;86.20;;;;;;5051982;28;20116;-36
2021/08/07 05:40:21;;;;;;;4.85;2.60;;;16.90;84.20;;;;;;5053311;28;20392;-37
2021/08/07 05:42:48;;;;;;;6.07;2.63;;;17.10;82.60;;;;;;5052897;28;20031;-36
2021/08/07 05:45:13;;;;;;;3.38;1.90;;;17.20;82.80;;;;;;5052880;28;20067;-48
2021/08/07 05:47:39;;;;;;;2.42;1.70;;;17.10;83.60;;;;;;5053622;28;20021;-49
2021/08/07 05:50:06;;;;;;;5.43;2.25;;;17.10;82.60;;;;;;5053585;28;20086;-47
2021/08/07 05:52:32;;;;;;;3.75;1.90;;;17.30;82.70;;;;;;5054148;28;20037;-47
2021/08/07 05:54:57;;;;;;;6.55;2.83;;;17.30;82.30;;;;;;5053066;28;20021;-48
2021/08/07 05:57:23;;;;;;;4.80;2.38;;;17.30;82.50;;;;;;5052906;28;20045;-36
2021/08/07 05:59:49;;;;;;;5.80;1.90;;;17.30;82.00;;;;;;5052820;28;20469;-36
2021/08/07 06:02:15;;;;;;;3.08;1.80;;;17.30;82.10;;;;;;5052402;28;20065;-36
2021/08/07 06:04:40;;;;;;;5.07;1.73;;;17.40;81.40;;;;;;5051046;28;20025;-36
2021/08/07 06:07:06;;;;;;;6.03;2.03;;;17.30;81.60;;;;;;5056162;28;20037;-38
2021/08/07 06:09:32;;;;;;;2.90;2.03;;;17.30;82.10;;;;;;5057749;28;20025;-38
2021/08/07 06:11:57;;;;;;;2.72;1.75;;;17.00;83.30;;;;;;5056358;28;20033;-35
2021/08/07 06:14:23;;;;;;;5.38;2.55;;;17.00;83.40;;;;;;5056572;28;20365;-36
2021/08/07 06:16:49;;;;;;;4.15;2.97;;;16.90;83.50;;;;;;5056856;28;20040;-38
2021/08/07 06:19:15;;;;;;;6.18;2.13;;;16.80;84.30;;;;;;5056249;28;20029;-37
2021/08/07 06:21:41;;;;;;;4.32;1.80;;;16.90;84.00;;;;;;5056321;28;20032;-37
2021/08/07 06:24:07;;;;;;;3.58;1.98;;;17.10;83.10;;;;;;5056870;28;20035;-37
2021/08/07 06:26:33;;;;;;;4.13;1.95;;;17.50;81.80;;;;;;5056714;28;20033;-36
2021/08/07 06:28:58;;;;;;;4.07;1.85;;;17.50;81.90;;;;;;5054951;28;20435;-37
2021/08/07 06:31:24;;;;;;;3.88;1.60;;;17.50;81.50;;;;;;5056882;28;20044;-37
2021/08/07 06:33:50;;;;;;;3.72;1.40;;;17.50;81.70;;;;;;5054951;28;20029;-36
2021/08/07 06:36:17;;;;;;;2.25;1.80;;;17.70;81.80;;;;;;5055980;28;20409;-37
2021/08/07 06:38:44;;;;;;;4.78;1.40;;;17.90;80.20;;;;;;5056214;28;20063;-51
2021/08/07 06:41:10;;;;;;;1.92;1.52;;;17.50;82.00;;;;;;5056567;28;20480;-52
2021/08/07 06:43:36;;;;;;;5.05;2.42;;;17.40;82.40;;;;;;5056033;28;20116;-49
2021/08/07 06:46:02;;;;;;;2.80;1.50;;;17.70;81.60;;;;;;5055983;28;20049;-50
2021/08/07 06:48:27;;;;;;;3.75;1.77;;;17.60;81.80;;;;;;5056288;28;20020;-37
2021/08/07 06:50:53;;;;;;;7.40;1.90;;;17.40;82.30;;;;;;5055885;28;20060;-37
2021/08/07 06:53:19;;;;;;;6.97;1.90;;;17.30;83.40;;;;;;5055644;28;20021;-37
2021/08/07 06:55:44;;;;;;;5.90;2.30;;;17.20;84.90;;;;;;5055868;28;20052;-37
2021/08/07 06:58:10;;;;;;;6.95;2.40;;;17.30;83.30;;;;;;5055657;28;20037;-37
2021/08/07 07:00:39;;;;;;;4.22;2.45;;;17.20;84.60;;;;;;5055410;28;20025;-36
2021/08/07 07:03:06;;;;;;;4.73;1.63;;;17.30;84.50;;;;;;5055180;28;20021;-37
2021/08/07 07:05:33;;;;;;;7.43;3.70;;;17.20;84.40;;;;;;5055130;28;20044;-38
2021/08/07 07:08:02;;;;;;;5.70;2.35;;;17.30;84.60;;;;;;5055238;28;20069;-37
2021/08/07 07:10:29;;;;;;;2.63;2.00;;;17.40;83.60;;;;;;5055318;28;20032;-37
2021/08/07 07:12:55;;;;;;;4.78;1.80;;;17.50;83.40;;;;;;5055282;28;20048;-37
2021/08/07 07:15:21;;;;;;;5.93;1.88;;;17.40;84.40;;;;;;5055228;28;20487;-37
2021/08/07 07:17:47;;;;;;;3.30;2.28;;;17.40;84.70;;;;;;5054657;28;20148;-37
2021/08/07 07:20:13;;;;;;;4.90;2.28;;;17.50;84.70;;;;;;5055093;28;20410;-37
2021/08/07 07:22:39;;;;;;;5.45;2.03;;;17.90;83.20;;;;;;5055278;28;20036;-37
2021/08/07 07:25:07;;;;;;;3.35;1.60;;;17.90;83.20;;;;;;5054663;28;20522;-37
2021/08/07 07:27:32;;;;;;;6.15;2.10;;;18.10;82.00;;;;;;5054858;28;20139;-38
2021/08/07 07:29:58;;;;;;;5.28;2.53;;;18.50;81.20;;;;;;5054474;28;20028;-37
2021/08/07 07:32:24;;;;;;;4.97;2.33;;;18.40;81.70;;;;;;5054444;28;20049;-37
2021/08/07 07:34:49;;;;;;;2.88;1.90;;;18.70;80.20;;;;;;5055169;28;20021;-37
2021/08/07 07:37:15;;;;;;;4.00;1.63;;;18.80;78.90;;;;;;5055029;28;20025;-37
2021/08/07 07:39:41;;;;;;;2.90;1.50;;;18.60;79.80;;;;;;5053380;28;20389;-36
2021/08/07 07:42:07;;;;;;;2.63;1.58;;;18.40;80.40;;;;;;5054479;28;20058;-37
2021/08/07 07:44:33;;;;;;;7.20;2.20;;;18.30;81.80;;;;;;5054365;28;20427;-36
2021/08/07 07:46:58;;;;;;;5.57;1.70;;;18.20;81.80;;;;;;5054140;28;20401;-36
2021/08/07 07:49:24;;;;;;;4.53;1.85;;;18.30;82.00;;;;;;5054806;28;20071;-36
2021/08/07 07:51:50;;;;;;;5.68;2.25;;;18.50;80.60;;;;;;5052972;28;20033;-36
2021/08/07 07:54:15;;;;;;;4.45;1.80;;;18.60;80.10;;;;;;5054224;28;20134;-37
2021/08/07 07:56:41;;;;;;;2.05;1.50;;;18.20;81.50;;;;;;5054290;28;20025;-37
2021/08/07 07:59:07;;;;;;;4.68;1.80;;;18.20;81.90;;;;;;5054393;28;20035;-37
2021/08/07 08:01:32;;;;;;;5.15;1.92;;;17.90;82.50;;;;;;5054233;28;20029;-37
2021/08/07 08:03:58;;;;;;;3.78;1.80;;;18.00;81.90;;;;;;5054340;28;20385;-49
2021/08/07 08:06:24;;;;;;;5.55;3.00;;;17.90;82.80;;;;;;5053354;28;20092;-51
2021/08/07 08:08:49;;;;;;;4.18;1.65;;;18.20;81.60;;;;;;5052955;28;20470;-51
2021/08/07 08:11:15;;;;;;;4.22;1.70;;;18.50;80.30;;;;;;5054406;28;20025;-48
2021/08/07 08:13:42;;;;;;;9.63;1.83;;;18.90;78.80;;;;;;5053863;28;20056;-50
2021/08/07 08:16:08;;;;;;;4.15;1.73;;;19.40;77.40;;;;;;5053647;28;20087;-50
2021/08/07 08:18:34;;;;;;;2.40;1.60;;;19.60;76.20;;;;;;5052639;28;20110;-47
2021/08/07 08:21:00;;;;;;;6.07;1.60;;;19.80;75.00;;;;;;5054376;28;20029;-50
2021/08/07 08:23:26;;;;;;;2.83;1.33;;;19.80;74.30;;;;;;5053978;28;20104;-48
2021/08/07 08:25:52;;;;;;;3.40;1.73;;;19.50;75.50;;;;;;5052768;28;20056;-47
2021/08/07 08:28:18;;;;;;;5.47;1.60;;;19.40;75.60;;;;;;5054218;28;20439;-49
2021/08/07 08:30:44;;;;;;;6.38;2.20;;;19.30;75.60;;;;;;5054690;28;20031;-49
2021/08/07 08:33:10;;;;;;;3.63;1.65;;;19.50;75.50;;;;;;5053902;28;20053;-49
2021/08/07 08:35:36;;;;;;;3.63;1.85;;;19.60;73.90;;;;;;5054243;28;20055;-50
2021/08/07 08:38:03;;;;;;;2.03;1.30;;;19.50;74.60;;;;;;5053526;28;20404;-51
2021/08/07 08:40:28;;;;;;;7.10;1.33;;;19.60;74.00;;;;;;5053250;28;20021;-47
2021/08/07 08:42:54;;;;;;;4.70;2.58;;;20.40;72.10;;;;;;5053484;28;20029;-47
2021/08/07 08:45:20;;;;;;;3.55;1.30;;;20.70;71.30;;;;;;5051961;28;20017;-47
2021/08/07 08:47:46;;;;;;;8.15;3.08;;;21.20;69.30;;;;;;5053491;28;20044;-52
2021/08/07 08:50:15;;;;;;;7.45;2.17;;;21.10;69.20;;;;;;5053443;28;20496;-49
2021/08/07 08:52:42;;;;;;;5.78;2.00;;;21.20;68.80;;;;;;5051209;28;20029;-49
2021/08/07 08:55:09;;;;;;;4.70;1.88;;;20.30;70.50;;;;;;5052361;28;20086;-48
2021/08/07 08:57:35;;;;;;;4.03;1.60;;;20.40;71.40;;;;;;5053073;28;20104;-50
2021/08/07 09:00:02;;;;;;;8.40;2.95;;;20.60;69.20;;;;;;5053512;28;20452;-48
2021/08/07 09:02:27;;;;;;;7.00;2.20;;;20.20;71.90;;;;;;5051117;28;20421;-48
2021/08/07 09:04:53;;;;;;;5.88;1.70;;;20.40;70.30;;;;;;5053094;28;20051;-48
2021/08/07 09:07:19;;;;;;;8.05;2.90;;;20.70;70.10;;;;;;5053083;28;20025;-50
2021/08/07 09:09:51;;;;;;;6.10;3.25;;;20.60;70.50;;;;;;5053029;28;20476;-51
2021/08/07 09:12:17;;;;;;;2.55;1.90;;;20.70;71.10;;;;;;5053028;28;20036;-50
2021/08/07 09:14:44;;;;;;;9.20;2.03;;;20.80;68.70;;;;;;5052801;28;20477;-49
2021/08/07 09:17:20;;;;;;;3.97;1.25;;;20.20;70.80;;;;;;5052874;28;20032;-50
2021/08/07 09:19:51;;;;;;;4.20;1.45;;;20.10;71.40;;;;;;5052628;28;20445;-51
2021/08/07 09:22:34;;;;;;;8.98;1.50;;;20.60;69.80;;;;;;5052009;28;20029;-48
2021/08/07 09:25:02;;;;;;;5.80;1.83;;;21.00;67.70;;;;;;5053189;28;20108;-50
2021/08/07 09:27:33;;;;;;;8.02;2.10;;;20.80;67.70;;;;;;5052989;28;20079;-52
2021/08/07 09:30:00;;;;;;;2.83;1.48;;;20.90;67.30;;;;;;5052121;28;20370;-51
2021/08/07 09:32:26;;;;;;;4.45;2.22;;;20.80;67.50;;;;;;5052869;28;20098;-49
2021/08/07 09:35:13;;;;;;;4.05;1.20;;;20.80;68.20;;;;;;5053881;28;20017;-49
2021/08/07 09:37:39;;;;;;;2.47;1.55;;;21.60;65.80;;;;;;5053343;28;20033;-49
2021/08/07 09:40:07;;;;;;;5.57;1.80;;;21.60;64.60;;;;;;5052643;28;20487;-48
2021/08/07 09:42:48;;;;;;;2.67;1.55;;;21.90;64.20;;;;;;5052439;28;20060;-50
2021/08/07 09:45:14;;;;;;;11.40;2.25;;;21.80;64.80;;;;;;5053061;28;20112;-49
2021/08/07 09:47:54;;;;;;;3.95;1.40;;;22.40;63.00;;;;;;5052774;28;20454;-53
2021/08/07 09:50:26;;;;;;;5.78;1.80;;;21.80;64.40;;;;;;5053220;28;20017;-49
2021/08/07 09:52:54;;;;;;;6.82;2.25;;;22.10;64.70;;;;;;5052330;28;20036;-48
2021/08/07 09:55:20;;;;;;;7.78;2.38;;;21.30;66.00;;;;;;5052087;28;20052;-47
2021/08/07 09:57:49;;;;;;;4.82;1.52;;;21.70;65.40;;;;;;5050952;28;20035;-49
2021/08/07 10:00:14;;;;;;;4.78;2.67;;;21.30;65.70;;;;;;5052607;28;20029;-49
2021/08/07 10:02:40;;;;;;;4.72;1.88;;;21.00;67.80;;;;;;5052510;28;20043;-47
2021/08/07 10:05:08;;;;;;;5.13;1.95;;;21.30;65.90;;;;;;5053122;28;20025;-48
2021/08/07 10:07:34;;;;;;;3.40;1.80;;;21.50;65.60;;;;;;5052700;28;20114;-48
2021/08/07 10:10:00;;;;;;;7.07;2.35;;;21.30;65.80;;;;;;5052695;28;20388;-49
2021/08/07 10:12:26;;;;;;;4.78;3.08;;;20.80;65.80;;;;;;5053534;28;20021;-52
2021/08/07 10:14:52;;;;;;;6.47;1.98;;;20.80;67.60;;;;;;5053057;28;20036;-51
2021/08/07 10:17:23;;;;;;;6.22;2.25;;;20.90;67.50;;;;;;5053267;28;20029;-51
2021/08/07 10:19:50;;;;;;;4.15;1.75;;;20.80;67.50;;;;;;5053247;28;20021;-49
2021/08/07 10:22:17;;;;;;;3.20;1.40;;;20.80;66.80;;;;;;5052350;28;20052;-51
2021/08/07 10:24:45;;;;;;;6.82;2.00;;;20.80;66.80;;;;;;5052499;28;20098;-48
2021/08/07 10:27:12;;;;;;;3.15;1.50;;;20.90;67.60;;;;;;5052911;28;20043;-48
2021/08/07 10:29:43;;;;;;;2.78;1.55;;;21.30;65.80;;;;;;5052004;28;20424;-51
2021/08/07 10:32:10;;;;;;;4.30;1.55;;;21.70;65.30;;;;;;5051156;28;20468;-50
2021/08/07 10:34:38;;;;;;;7.03;2.15;;;22.00;62.60;;;;;;5051951;28;20219;-47
2021/08/07 10:37:05;;;;;;;3.72;1.48;;;22.10;63.10;;;;;;5052100;28;20033;-50
2021/08/07 10:39:31;;;;;;;5.22;1.45;;;23.00;58.90;;;;;;5051761;28;20051;-50
2021/08/07 10:42:02;;;;;;;4.35;2.00;;;24.20;55.00;;;;;;5051548;28;20083;-49
2021/08/07 10:44:30;;;;;;;3.70;1.55;;;25.90;50.40;;;;;;5051956;28;20028;-49
2021/08/07 10:46:56;;;;;;;3.30;1.50;;;26.20;48.70;;;;;;5051546;28;20025;-48
2021/08/07 10:49:45;;;;;;;3.10;1.50;;;25.80;47.80;;;;;;5051846;28;20105;-50
2021/08/07 10:52:20;;;;;;;4.70;1.60;;;24.80;51.70;;;;;;5051996;28;20116;-50
2021/08/07 10:54:46;;;;;;;7.57;3.15;;;24.30;51.80;;;;;;5053115;28;20029;-48
2021/08/07 10:57:37;;;;;;;9.18;2.30;;;24.10;53.50;;;;;;5055098;28;20035;-51
2021/08/07 11:00:24;;;;;;;7.60;2.10;;;23.20;54.30;;;;;;5055580;28;20039;-51
2021/08/07 11:03:09;;;;;;;6.53;2.00;;;23.70;52.90;;;;;;5055158;28;20025;-51
2021/08/07 11:05:49;;;;;;;2.40;1.65;;;23.20;54.90;;;;;;5055968;28;20162;-52
2021/08/07 11:08:19;;;;;;;4.57;1.88;;;21.90;58.40;;;;;;5055292;28;20021;-49
2021/08/07 11:10:46;;;;;;;8.60;2.67;;;21.80;60.00;;;;;;5055132;28;20021;-51
2021/08/07 11:13:26;;;;;;;4.32;1.60;;;21.80;59.70;;;;;;5055406;28;20075;-49
2021/08/07 11:16:18;;;;;;;9.20;2.20;;;21.70;59.70;;;;;;5055289;28;20085;-52
2021/08/07 11:18:44;;;;;;;3.33;1.80;;;21.70;59.90;;;;;;5053886;28;20056;-47
2021/08/07 11:21:47;;;;;;;14.35;3.13;;;21.30;62.40;;;;;;5054754;28;20036;-49
2021/08/07 11:24:44;;;;;;;11.27;3.78;;;21.20;64.00;;;;;;5055075;28;20031;-48
2021/08/07 11:27:10;;;;;;;7.63;2.42;;;20.70;70.50;;;;;;5054712;28;20032;-48
2021/08/07 11:30:13;;;;;;;5.05;2.13;;;19.30;69.00;;;;;;5054765;28;20053;-49
2021/08/07 11:32:39;;;;;;;5.68;2.55;;;19.20;72.10;;;;;;5054382;28;20101;-47
2021/08/07 11:35:05;;;;;;;4.10;2.58;;;19.30;75.10;;;;;;5054560;28;20149;-48
2021/08/07 11:37:31;;;;;;;6.22;3.47;;;19.50;74.00;;;;;;5054348;28;20114;-49
2021/08/07 11:40:11;;;;;;;7.88;3.22;;;19.40;76.20;;;;;;5054363;28;20033;-50
2021/08/07 11:42:43;;;;;;;8.38;3.15;;;19.60;75.20;;;;;;5054340;28;20025;-48
2021/08/07 11:45:14;;;;;;;5.88;2.33;;;20.10;73.50;;;;;;5053346;28;20040;-48
2021/08/07 11:47:49;;;;;;;5.88;3.00;;;20.50;71.40;;;;;;5054515;28;20029;-49
2021/08/07 11:50:15;;;;;;;6.70;2.97;;;20.10;73.20;;;;;;5054659;28;20041;-48
2021/08/07 11:52:41;;;;;;;6.70;3.13;;;20.20;73.30;;;;;;5054833;28;20033;-48
2021/08/07 11:55:07;;;;;;;8.88;2.88;;;20.40;73.10;;;;;;5054551;28;20029;-37
2021/08/07 11:57:33;;;;;;;8.90;2.85;;;20.90;72.00;;;;;;5054417;28;20475;-37
2021/08/07 12:00:18;;;;;;;6.63;3.92;;;21.10;70.30;;;;;;5053871;28;20025;-36
2021/08/07 12:02:55;;;;;;;12.40;3.10;;;21.30;67.90;;;;;;5052673;28;20337;-37
2021/08/07 12:05:21;;;;;;;9.32;4.25;;;21.30;68.90;;;;;;5054052;28;20025;-51
2021/08/07 12:08:04;;;;;;;4.72;2.30;;;20.90;70.80;;;;;;5054207;28;20023;-48
2021/08/07 12:10:31;;;;;;;6.30;2.80;;;21.10;70.50;;;;;;5053930;28;20029;-50
2021/08/07 12:12:58;;;;;;;7.10;2.75;;;21.10;72.40;;;;;;5053854;28;20021;-48
2021/08/07 12:15:23;;;;;;;3.67;2.45;;;20.90;74.20;;;;;;5053692;28;20056;-49
2021/08/07 12:17:50;;;;;;;8.07;3.30;;;21.10;71.10;;;;;;5053781;28;20079;-52
2021/08/07 12:20:16;;;;;;;8.02;2.83;;;21.30;72.00;;;;;;5053959;28;20021;-49
2021/08/07 12:23:02;;;;;;;5.95;2.35;;;21.50;71.10;;;;;;5054028;28;20029;-50
2021/08/07 12:25:30;;;;;;;28.13;4.90;;;21.80;69.30;;;;;;5052524;28;20025;-51
2021/08/07 12:28:15;;;;;;;8.20;1.67;;;22.10;67.80;;;;;;5053107;28;20025;-49
2021/08/07 12:31:01;;;;;;;5.43;1.60;;;22.40;63.30;;;;;;5053449;28;20029;-50
2021/08/07 12:33:29;;;;;;;6.30;2.00;;;22.60;61.70;;;;;;5052870;28;20125;-49
2021/08/07 12:35:55;;;;;;;4.95;1.65;;;22.90;61.80;;;;;;5053407;28;20025;-48
2021/08/07 12:38:24;;;;;;;5.63;1.40;;;23.00;57.90;;;;;;5053441;28;20017;-51
2021/08/07 12:40:59;;;;;;;3.95;1.70;;;22.20;62.10;;;;;;5053200;28;20073;-48
2021/08/07 12:43:32;;;;;;;4.40;1.70;;;21.90;62.30;;;;;;5053235;28;20032;-48
2021/08/07 12:46:09;;;;;;;6.00;1.80;;;21.70;60.30;;;;;;5053095;28;20086;-37
2021/08/07 12:49:00;;;;;;;3.00;1.73;;;21.30;63.70;;;;;;5053413;28;20033;-37
2021/08/07 12:51:36;;;;;;;4.88;1.52;;;21.30;63.30;;;;;;5039362;28;20075;-37